createdAt,value
2017-07-21T00:00:18.765Z,20.10
2017-07-21T00:05:21.049Z,20.10
2017-07-21T00:10:37.260Z,19.90
2017-07-21T00:15:38.844Z,19.90
2017-07-21T00:20:41.760Z,19.80
2017-07-21T00:25:43.409Z,19.70
2017-07-21T00:30:44.976Z,19.70
2017-07-21T00:35:46.678Z,19.10
2017-07-21T00:40:48.967Z,19.00
2017-07-21T00:45:50.637Z,19.00
2017-07-21T00:50:52.928Z,18.80
2017-07-21T00:55:54.597Z,18.90
2017-07-21T01:00:56.343Z,19.00
2017-07-21T01:05:58.045Z,18.80
2017-07-21T01:10:59.718Z,18.90
2017-07-21T01:16:02.597Z,18.80
2017-07-21T01:21:04.393Z,18.70
2017-07-21T01:26:07.246Z,18.60
2017-07-21T01:31:09.684Z,18.50
2017-07-21T01:36:11.327Z,18.40
2017-07-21T01:41:13.029Z,18.30
2017-07-21T01:46:14.673Z,18.40
2017-07-21T01:51:16.373Z,18.30
2017-07-21T01:56:19.171Z,18.30
2017-07-21T02:01:20.817Z,18.10
2017-07-21T02:06:23.108Z,18.00
2017-07-21T02:11:24.806Z,17.90
2017-07-21T02:16:26.578Z,17.80
2017-07-21T02:21:28.252Z,17.70
2017-07-21T02:26:29.925Z,17.60
2017-07-21T02:31:32.314Z,17.60
2017-07-21T02:36:34.060Z,17.40
2017-07-21T02:41:50.427Z,17.40
2017-07-21T02:47:06.828Z,17.40
2017-07-21T02:52:23.347Z,17.40
2017-07-21T02:57:40.763Z,17.30
2017-07-21T03:02:42.355Z,17.30
2017-07-21T03:07:59.062Z,17.30
2017-07-21T03:13:15.394Z,17.20
2017-07-21T03:18:32.430Z,17.10
2017-07-21T03:23:34.073Z,17.00
2017-07-21T03:28:35.777Z,16.80
2017-07-21T03:33:37.446Z,16.70
2017-07-21T03:39:00.684Z,16.90
2017-07-21T03:44:03.012Z,16.70
2017-07-21T03:49:04.656Z,16.60
2017-07-21T03:54:06.431Z,16.80
2017-07-21T03:59:08.749Z,17.00
2017-07-21T04:04:10.456Z,16.90
2017-07-21T04:09:13.221Z,17.00
2017-07-21T04:14:14.963Z,17.00
2017-07-21T04:19:16.667Z,17.10
2017-07-21T04:24:18.291Z,17.40
2017-07-21T04:29:21.037Z,17.80
2017-07-21T04:34:22.809Z,18.30
2017-07-21T04:39:25.609Z,18.40
2017-07-21T04:44:27.257Z,18.70
2017-07-21T04:49:28.962Z,19.00
2017-07-21T04:54:30.711Z,19.00
2017-07-21T04:59:32.866Z,19.00
2017-07-21T05:04:34.587Z,19.10
2017-07-21T05:09:36.465Z,19.20
2017-07-21T05:14:38.217Z,19.20
2017-07-21T05:19:39.835Z,19.20
2017-07-21T05:24:42.613Z,19.30
2017-07-21T05:29:44.212Z,19.60
2017-07-21T05:34:46.977Z,19.90
2017-07-21T05:39:48.725Z,20.30
2017-07-21T05:44:50.940Z,20.60
2017-07-21T05:49:52.608Z,20.80
2017-07-21T05:54:54.282Z,21.20
2017-07-21T05:59:55.912Z,21.30
2017-07-21T06:05:13.397Z,21.80
2017-07-21T06:10:15.053Z,22.10
2017-07-21T06:15:16.721Z,22.30
2017-07-21T06:20:18.394Z,22.70
2017-07-21T06:25:20.066Z,22.90
2017-07-21T06:30:21.846Z,23.10
2017-07-21T06:35:23.534Z,23.30
2017-07-21T06:40:25.744Z,23.60
2017-07-21T06:45:27.497Z,23.30
2017-07-21T06:50:29.167Z,23.90
2017-07-21T06:55:30.920Z,23.50
2017-07-21T07:00:32.588Z,24.00
2017-07-21T07:05:34.264Z,23.90
2017-07-21T07:10:35.961Z,23.40
2017-07-21T07:15:37.635Z,24.00
2017-07-21T07:20:39.410Z,25.00
2017-07-21T07:25:41.812Z,25.20
2017-07-21T07:30:43.475Z,24.70
2017-07-21T07:35:45.836Z,25.30
2017-07-21T07:40:47.534Z,25.70
2017-07-21T07:45:49.190Z,26.00
2017-07-21T07:50:50.880Z,26.10
2017-07-21T07:55:52.480Z,26.10
2017-07-21T08:00:54.430Z,26.40
2017-07-21T08:05:56.103Z,26.70
2017-07-21T08:10:58.901Z,26.20
2017-07-21T08:16:00.779Z,26.70
2017-07-21T08:21:02.375Z,26.80
2017-07-21T08:26:04.097Z,27.10
2017-07-21T08:31:05.799Z,27.40
2017-07-21T08:36:07.914Z,28.20
2017-07-21T08:41:09.524Z,28.50
2017-07-21T08:46:11.311Z,28.10
2017-07-21T08:51:13.000Z,28.00
2017-07-21T08:56:14.674Z,27.70
2017-07-21T09:01:16.345Z,28.30
2017-07-21T09:06:19.451Z,28.50
2017-07-21T09:11:21.228Z,27.10
2017-07-21T09:16:23.191Z,28.30
2017-07-21T09:21:24.963Z,28.70
2017-07-21T09:26:26.656Z,28.40
2017-07-21T09:31:28.327Z,28.50
2017-07-21T09:36:30.103Z,28.40
2017-07-21T09:41:31.748Z,27.70
2017-07-21T09:46:33.403Z,28.50
2017-07-21T09:51:35.092Z,27.70
2017-07-21T09:56:36.879Z,27.70
2017-07-21T10:01:38.553Z,27.70
2017-07-21T10:06:40.195Z,28.40
2017-07-21T10:11:42.608Z,29.10
2017-07-21T10:16:44.228Z,29.00
2017-07-21T10:21:45.852Z,28.70
2017-07-21T10:26:47.400Z,29.00
2017-07-21T10:31:49.834Z,27.80
2017-07-21T10:36:51.507Z,27.80
2017-07-21T10:41:53.180Z,28.20
2017-07-21T10:46:54.824Z,28.40
2017-07-21T10:51:56.496Z,27.60
2017-07-21T10:56:58.299Z,28.40
2017-07-21T11:02:00.075Z,28.90
2017-07-21T11:07:01.721Z,28.80
2017-07-21T11:12:03.356Z,28.40
2017-07-21T11:17:05.094Z,28.40
2017-07-21T11:22:06.765Z,28.90
2017-07-21T11:27:08.480Z,28.50
2017-07-21T11:32:10.185Z,28.40
2017-07-21T11:37:11.820Z,27.40
2017-07-21T11:42:13.971Z,28.70
2017-07-21T11:47:15.642Z,28.20
2017-07-21T11:52:17.314Z,28.50
2017-07-21T11:57:18.973Z,28.30
2017-07-21T12:02:21.801Z,28.40
2017-07-21T12:07:23.561Z,28.00
2017-07-21T12:12:25.541Z,28.60
2017-07-21T12:17:27.217Z,28.00
2017-07-21T12:22:28.960Z,28.40
2017-07-21T12:27:30.765Z,28.20
2017-07-21T12:32:32.438Z,28.40
2017-07-21T12:37:34.110Z,28.70
2017-07-21T12:42:35.783Z,28.80
2017-07-21T12:47:37.412Z,29.00
2017-07-21T12:52:39.128Z,29.10
2017-07-21T12:57:40.904Z,28.90
2017-07-21T13:02:42.552Z,28.70
2017-07-21T13:07:44.233Z,28.50
2017-07-21T13:12:45.886Z,28.30
2017-07-21T13:17:47.595Z,28.80
2017-07-21T13:22:49.268Z,28.40
2017-07-21T13:27:51.043Z,27.80
2017-07-21T13:32:52.717Z,28.30
2017-07-21T13:37:55.120Z,28.60
2017-07-21T13:42:56.779Z,28.50
2017-07-21T13:47:58.659Z,28.40
2017-07-21T13:53:00.328Z,28.20
2017-07-21T13:58:02.001Z,27.70
2017-07-21T14:03:03.777Z,28.10
2017-07-21T14:08:05.451Z,28.10
2017-07-21T14:13:07.227Z,28.00
2017-07-21T14:18:09.524Z,28.10
2017-07-21T14:23:12.364Z,28.30
2017-07-21T14:28:14.816Z,28.40
2017-07-21T14:33:16.578Z,28.30
2017-07-21T14:38:18.251Z,28.10
2017-07-21T14:43:20.309Z,28.50
2017-07-21T14:48:22.825Z,28.40
2017-07-21T14:53:24.456Z,28.30
2017-07-21T14:58:26.887Z,27.80
2017-07-21T15:03:28.560Z,27.80
2017-07-21T15:08:30.233Z,27.60
2017-07-21T15:13:31.992Z,27.60
2017-07-21T15:18:34.282Z,27.60
2017-07-21T15:23:35.997Z,27.60
2017-07-21T15:28:38.332Z,27.80
2017-07-21T15:33:40.132Z,27.60
2017-07-21T15:39:00.897Z,27.50
2017-07-21T15:44:02.605Z,27.50
2017-07-21T15:49:05.738Z,27.40
2017-07-21T15:54:07.440Z,27.40
2017-07-21T15:59:09.183Z,27.40
2017-07-21T16:04:10.839Z,27.30
2017-07-21T16:09:12.527Z,27.40
2017-07-21T16:14:14.280Z,27.30
2017-07-21T16:19:16.019Z,27.20
2017-07-21T16:24:17.730Z,27.40
2017-07-21T16:29:19.527Z,27.20
2017-07-21T16:34:21.199Z,27.40
2017-07-21T16:39:23.182Z,27.60
2017-07-21T16:44:24.959Z,27.70
2017-07-21T16:49:26.625Z,27.80
2017-07-21T16:54:28.403Z,27.70
2017-07-21T16:59:30.054Z,27.70
2017-07-21T17:04:31.820Z,27.80
2017-07-21T17:09:33.625Z,27.80
2017-07-21T17:14:35.298Z,27.90
2017-07-21T17:19:36.960Z,27.80
2017-07-21T17:24:38.701Z,27.90
2017-07-21T17:29:41.071Z,27.90
2017-07-21T17:34:42.705Z,27.80
2017-07-21T17:39:44.378Z,27.90
2017-07-21T17:44:46.154Z,27.80
2017-07-21T17:49:48.850Z,27.80
2017-07-21T17:54:50.506Z,27.70
2017-07-21T17:59:52.178Z,27.70
2017-07-21T18:04:53.857Z,27.70
2017-07-21T18:09:56.397Z,27.70
2017-07-21T18:14:58.224Z,27.70
2017-07-21T18:19:59.910Z,27.60
2017-07-21T18:25:01.567Z,27.60
2017-07-21T18:30:03.461Z,27.40
2017-07-21T18:35:06.058Z,27.40
2017-07-21T18:40:07.761Z,27.30
2017-07-21T18:45:09.490Z,27.10
2017-07-21T18:50:11.177Z,27.00
2017-07-21T18:55:12.951Z,26.90
2017-07-21T19:00:15.447Z,26.90
2017-07-21T19:05:21.083Z,26.70
2017-07-21T19:10:25.607Z,26.50
2017-07-21T19:15:27.866Z,26.50
2017-07-21T19:20:29.918Z,26.40
2017-07-21T19:25:31.590Z,26.40
2017-07-21T19:30:33.240Z,26.20
2017-07-21T19:35:34.935Z,26.10
2017-07-21T19:46:34.806Z,25.80
2017-07-21T19:51:36.480Z,25.70
2017-07-21T19:56:39.816Z,25.70
2017-07-21T20:01:41.669Z,25.70
2017-07-21T20:06:43.860Z,25.70
2017-07-21T20:11:46.485Z,25.70
2017-07-21T20:16:48.326Z,25.50
2017-07-21T20:21:50.072Z,25.60
2017-07-21T20:26:51.753Z,25.60
2017-07-21T20:31:53.549Z,25.50
2017-07-21T20:36:55.200Z,25.50
2017-07-21T20:41:56.898Z,25.40
2017-07-21T20:46:58.540Z,25.30
2017-07-21T20:52:00.117Z,25.30
2017-07-21T20:57:01.709Z,25.20
2017-07-21T21:02:03.484Z,25.20
2017-07-21T21:07:05.157Z,25.20
2017-07-21T21:12:06.728Z,25.10
2017-07-21T21:17:09.118Z,25.10
2017-07-21T21:22:11.207Z,25.10
2017-07-21T21:27:12.796Z,24.60
2017-07-21T21:32:14.984Z,24.30
2017-07-21T21:37:17.044Z,23.40
2017-07-21T21:42:18.787Z,21.80
2017-07-21T21:47:20.588Z,21.50
2017-07-21T21:52:22.363Z,21.10
2017-07-21T21:57:24.141Z,21.50
2017-07-21T22:02:25.811Z,21.50
2017-07-21T22:07:27.586Z,21.20
2017-07-21T22:12:29.143Z,20.70
2017-07-21T22:17:31.472Z,20.40
2017-07-21T22:22:33.219Z,20.50
2017-07-21T22:27:34.964Z,20.50
2017-07-21T22:32:36.666Z,20.30
2017-07-21T22:37:38.443Z,20.60
2017-07-21T22:42:41.035Z,21.00
2017-07-21T22:47:42.680Z,20.50
2017-07-21T22:52:44.352Z,19.80
2017-07-21T22:57:46.054Z,19.50
2017-07-21T23:02:47.829Z,19.70
2017-07-21T23:07:50.117Z,19.90
2017-07-21T23:12:52.403Z,19.90
2017-07-21T23:17:54.048Z,19.00
2017-07-21T23:22:55.753Z,18.90
2017-07-21T23:27:57.846Z,19.00
2017-07-21T23:32:59.576Z,19.00
2017-07-21T23:38:01.279Z,18.80
2017-07-21T23:43:02.951Z,18.60
2017-07-21T23:48:05.237Z,18.70
2017-07-21T23:53:07.507Z,18.60
2017-07-21T23:58:09.196Z,18.50
